If you wish to contribute or participate in the discussions about articles you are invited to join SKYbrary as a registered user

 Actions

Minchumina Airport

From SKYbrary Wiki

PAMH
Airport
ICAO: PAMH – IATA: MHM
Summary
Name Minchumina Airport
Region North America
Territory Alaska US.gif
Location , Alaska
Serving Lake Minchumina
Elevation 206.654 m
678 ft
678 ft206.654 m
Type small airport
Coordinates 63° 53' 10.00" N, 152° 18' 7.00" W
Runways
Designator Length Width Surface ROPS
3/21 1280 m4,199.475 ft
30 m98.425 ft
GRAVEL /


METAR
Observation PAMH 222256Z AUTO 07003KT 10SM OVC100 02/M04 A2988 RMK AO2 SLP123 T00221039 FZRANO
Station Minchumina, Minchumina Airport
Date/Time 22 October 2019 22:56:00
Wind direction 70°
Wind speed 03 kts
Lowest cloud amount overcast
Temperature 2.2°C
Dew point
Humidity 63%
QNH hPa
Weather condition n/a